Time;durP1;ratioP1;P1;durP2;ratioP2;P2;SDS_P1;SDS_P2;PMS_P1;PMS_P2;Temp;Humidity;BMP_temperature;BMP_pressure;BME280_temperature;BME280_humidity;BME280_pressure;Samples;Min_cycle;Max_cycle;Signal;HPM_P1;HPM_P2
2021/03/03 00:01:28;;;;;;;25.80;14.00;;;;;;;5.06;90.07;101692.73;658956;217;24848;-74
2021/03/03 00:03:56;;;;;;;24.63;15.20;;;;;;;4.96;90.43;101680.76;654961;217;24834;-75
2021/03/03 00:06:24;;;;;;;25.00;14.77;;;;;;;4.81;90.28;101673.75;655194;217;24873;-75
2021/03/03 00:08:52;;;;;;;27.23;15.43;;;;;;;4.72;90.59;101674.17;641586;222;24959;-76
2021/03/03 00:11:20;;;;;;;26.83;15.40;;;;;;;4.49;91.49;101681.66;644125;221;24852;-75
2021/03/03 00:13:48;;;;;;;30.77;15.40;;;;;;;4.55;92.91;101692.98;644735;221;24925;-75
2021/03/03 00:16:15;;;;;;;27.85;16.48;;;;;;;4.75;91.25;101698.05;625714;225;33238;-76
2021/03/03 00:18:43;;;;;;;25.27;17.57;;;;;;;5.17;90.34;101687.07;632685;222;32705;-75
2021/03/03 00:21:11;;;;;;;26.57;16.73;;;;;;;4.74;91.28;101689.94;653154;217;23957;-76
2021/03/03 00:23:39;;;;;;;24.80;16.37;;;;;;;4.83;91.09;101687.86;656186;217;24844;-76
2021/03/03 00:26:07;;;;;;;29.90;16.27;;;;;;;5.00;90.22;101682.27;639537;221;24858;-76
2021/03/03 00:28:35;;;;;;;23.63;15.80;;;;;;;4.94;89.98;101685.61;637893;221;24883;-75
2021/03/03 00:31:03;;;;;;;25.17;15.20;;;;;;;4.86;89.95;101692.41;640775;222;24932;-75
2021/03/03 00:33:31;;;;;;;30.13;15.03;;;;;;;4.96;89.89;101687.66;652935;217;24864;-75
2021/03/03 00:35:58;;;;;;;26.67;15.47;;;;;;;4.90;89.40;101686.64;640253;222;24895;-75
2021/03/03 00:38:26;;;;;;;28.70;16.83;;;;;;;4.77;90.01;101691.53;652810;217;24864;-75
2021/03/03 00:40:54;;;;;;;21.93;14.10;;;;;;;4.66;90.03;101688.19;660871;217;24830;-76
2021/03/03 00:43:22;;;;;;;22.10;13.90;;;;;;;4.47;89.99;101688.17;646700;219;24892;-76
2021/03/03 00:45:50;;;;;;;21.23;14.20;;;;;;;4.48;89.95;101696.73;644259;221;24885;-75
2021/03/03 00:48:18;;;;;;;25.73;15.50;;;;;;;4.47;90.27;101694.61;649035;217;24836;-74
2021/03/03 00:50:46;;;;;;;24.40;15.80;;;;;;;4.54;90.76;101696.93;638641;220;24879;-76
2021/03/03 00:53:13;;;;;;;21.40;13.53;;;;;;;4.53;90.59;101711.55;646568;221;24896;-75
2021/03/03 00:55:41;;;;;;;26.90;14.70;;;;;;;4.24;93.06;101706.41;655632;217;24831;-75
2021/03/03 00:58:09;;;;;;;27.90;13.37;;;;;;;4.40;91.43;101700.96;650921;217;24842;-75
2021/03/03 01:00:38;;;;;;;23.73;14.23;;;;;;;4.64;91.02;101704.14;645044;221;24919;-75
2021/03/03 01:03:06;;;;;;;23.80;13.77;;;;;;;4.37;91.75;101697.70;641123;221;24880;-76
2021/03/03 01:05:34;;;;;;;26.03;13.70;;;;;;;4.23;91.33;101700.05;643986;221;24879;-75
2021/03/03 01:08:02;;;;;;;22.57;14.40;;;;;;;4.28;91.55;101687.34;641785;221;24870;-76
2021/03/03 01:10:30;;;;;;;21.77;14.40;;;;;;;4.27;91.71;101695.14;638859;221;24876;-75
2021/03/03 01:12:58;;;;;;;26.77;17.30;;;;;;;4.04;92.58;101690.53;636843;221;25167;-75
2021/03/03 01:15:26;;;;;;;23.43;13.63;;;;;;;4.15;92.43;101692.19;637505;221;24894;-76
2021/03/03 01:17:59;;;;;;;25.33;14.10;;;;;;;4.21;90.75;101686.38;653243;217;29068;-75
2021/03/03 01:20:22;;;;;;;23.20;13.80;;;;;;;4.24;90.39;101680.66;651170;218;24831;-75
2021/03/03 01:22:50;;;;;;;28.73;14.60;;;;;;;4.18;90.62;101681.75;650935;218;25914;-75
2021/03/03 01:25:18;;;;;;;28.03;13.57;;;;;;;4.18;90.57;101676.60;644443;219;24889;-76
2021/03/03 01:27:46;;;;;;;24.25;15.38;;;;;;;4.95;88.10;101665.38;637298;222;32514;-76
2021/03/03 01:30:15;;;;;;;25.03;14.53;;;;;;;4.69;88.17;101666.14;641556;222;23767;-76
2021/03/03 01:32:43;;;;;;;27.03;13.80;;;;;;;4.65;87.57;101669.77;652819;217;24864;-76
2021/03/03 01:35:13;;;;;;;24.27;15.63;;;;;;;4.47;88.26;101664.16;641817;222;24867;-75
2021/03/03 01:37:40;;;;;;;25.30;13.27;;;;;;;4.29;88.64;101672.27;654698;217;24853;-76
2021/03/03 01:40:09;;;;;;;21.87;13.70;;;;;;;4.23;88.62;101664.00;639541;222;24895;-75
2021/03/03 01:42:37;;;;;;;22.67;13.80;;;;;;;3.97;89.35;101663.41;636220;222;24926;-75
2021/03/03 01:45:06;;;;;;;24.13;14.57;;;;;;;3.86;89.79;101668.17;638431;222;24915;-75
2021/03/03 01:47:34;;;;;;;23.03;13.80;;;;;;;3.86;90.04;101665.60;648006;219;24863;-75
2021/03/03 01:50:06;;;;;;;20.83;12.80;;;;;;;3.73;89.89;101659.31;656574;217;24841;-76
2021/03/03 01:52:34;;;;;;;20.10;14.13;;;;;;;3.64;91.60;101664.38;641612;221;25021;-75
2021/03/03 01:55:02;;;;;;;21.83;13.50;;;;;;;3.75;92.01;101670.37;641878;221;24883;-75
2021/03/03 01:57:30;;;;;;;28.30;13.93;;;;;;;4.18;90.72;101674.48;652875;217;24850;-75
2021/03/03 01:59:58;;;;;;;26.20;15.50;;;;;;;4.11;90.50;101667.50;655172;217;24851;-76
2021/03/03 02:02:26;;;;;;;23.97;14.43;;;;;;;3.98;89.74;101659.92;638365;221;24879;-76
2021/03/03 02:04:54;;;;;;;24.70;14.43;;;;;;;3.96;90.82;101669.91;651008;217;24853;-75
2021/03/03 02:07:23;;;;;;;22.70;14.03;;;;;;;3.99;90.82;101680.90;645653;221;24904;-75
2021/03/03 02:09:52;;;;;;;27.20;15.60;;;;;;;3.78;93.01;101688.23;643275;221;24870;-78
2021/03/03 02:12:20;;;;;;;27.63;16.23;;;;;;;3.63;94.08;101691.01;636749;221;24923;-78
2021/03/03 02:14:49;;;;;;;28.10;16.07;;;;;;;3.82;93.54;101692.38;642824;221;24898;-78
2021/03/03 02:17:17;;;;;;;32.37;15.87;;;;;;;4.03;92.36;101680.31;636818;221;25164;-78
2021/03/03 02:19:45;;;;;;;23.60;13.90;;;;;;;3.73;91.66;101665.74;642157;221;24914;-78
2021/03/03 02:22:13;;;;;;;22.83;13.50;;;;;;;3.51;92.15;101667.91;652856;217;24838;-79
2021/03/03 02:24:43;;;;;;;20.97;13.90;;;;;;;3.61;92.63;101688.13;645591;221;27001;-77
2021/03/03 02:27:11;;;;;;;26.63;15.03;;;;;;;3.65;94.00;101688.38;639273;221;25155;-78
2021/03/03 02:29:39;;;;;;;31.47;15.50;;;;;;;3.74;92.91;101680.27;644444;221;24894;-76
2021/03/03 02:32:07;;;;;;;29.00;14.77;;;;;;;3.72;93.53;101691.92;639898;222;24874;-76
2021/03/03 02:34:35;;;;;;;25.20;14.83;;;;;;;3.84;92.81;101681.56;639639;222;25937;-77
2021/03/03 02:37:03;;;;;;;26.00;15.47;;;;;;;3.55;91.92;101667.36;655208;218;24832;-76
2021/03/03 02:39:31;;;;;;;22.57;14.20;;;;;;;3.44;92.28;101669.09;657297;217;25104;-76
2021/03/03 02:41:59;;;;;;;24.50;14.10;;;;;;;3.23;92.60;101663.08;654311;217;24847;-76
2021/03/03 02:44:27;;;;;;;22.50;13.27;;;;;;;3.34;92.46;101663.92;652272;217;24922;-77
2021/03/03 02:46:54;;;;;;;24.97;14.17;;;;;;;3.14;92.82;101663.91;638480;222;24883;-76
2021/03/03 02:49:22;;;;;;;21.90;13.47;;;;;;;3.08;93.43;101662.86;643279;222;24895;-76
2021/03/03 02:51:50;;;;;;;23.03;14.40;;;;;;;3.04;93.55;101664.72;652301;217;24855;-76
2021/03/03 02:54:18;;;;;;;27.63;14.30;;;;;;;3.10;94.12;101669.64;646819;222;24876;-76
2021/03/03 02:56:46;;;;;;;21.77;14.17;;;;;;;3.31;93.67;101673.52;647142;222;24881;-76
2021/03/03 02:59:24;;;;;;;20.57;14.17;;;;;;;3.54;92.65;101667.81;654487;217;24900;-76
2021/03/03 03:01:52;;;;;;;26.83;14.90;;;;;;;3.62;92.68;101672.62;643495;220;25944;-77
2021/03/03 03:04:20;;;;;;;32.50;16.00;;;;;;;3.67;92.85;101668.59;637760;221;24872;-76
2021/03/03 03:06:48;;;;;;;26.43;15.10;;;;;;;3.28;93.92;101678.33;661775;216;24844;-76
2021/03/03 03:09:17;;;;;;;23.07;14.47;;;;;;;3.32;94.92;101682.89;637464;221;24871;-76
2021/03/03 03:11:46;;;;;;;25.27;15.00;;;;;;;3.25;94.75;101678.02;642639;221;27058;-76
2021/03/03 03:14:15;;;;;;;16.90;11.67;;;;;;;3.26;94.60;101682.25;653865;219;25887;-76
2021/03/03 03:16:43;;;;;;;23.50;13.23;;;;;;;3.24;95.31;101685.34;651011;217;24833;-76
2021/03/03 03:19:12;;;;;;;25.70;14.20;;;;;;;3.05;96.78;101687.40;644132;221;24932;-76
2021/03/03 03:21:40;;;;;;;26.30;13.90;;;;;;;3.15;95.49;101683.58;647232;218;24845;-76
2021/03/03 03:24:08;;;;;;;23.63;14.30;;;;;;;3.28;95.15;101677.05;648161;221;24867;-77
2021/03/03 03:26:36;;;;;;;25.65;14.63;;;;;;;3.71;92.64;101667.55;641048;221;32707;-76
2021/03/03 03:29:04;;;;;;;24.00;14.77;;;;;;;3.28;93.33;101674.48;650363;217;23720;-76
2021/03/03 03:31:32;;;;;;;21.77;13.47;;;;;;;3.37;93.82;101670.22;648746;219;24874;-76
2021/03/03 03:34:00;;;;;;;21.43;13.37;;;;;;;3.14;93.74;101662.62;649531;221;24856;-76
2021/03/03 03:36:28;;;;;;;24.70;13.63;;;;;;;3.36;92.61;101667.27;658873;217;24854;-76
2021/03/03 03:38:56;;;;;;;21.80;13.17;;;;;;;3.16;92.65;101669.83;657480;217;24841;-76
2021/03/03 03:41:24;;;;;;;23.83;13.50;;;;;;;3.20;92.91;101669.62;642944;221;24852;-76
2021/03/03 03:43:52;;;;;;;22.03;13.07;;;;;;;3.29;92.04;101663.29;654601;217;24860;-77
2021/03/03 03:46:19;;;;;;;21.30;13.37;;;;;;;3.21;92.04;101665.32;652498;217;25952;-76
2021/03/03 03:48:47;;;;;;;22.17;13.37;;;;;;;3.18;92.50;101661.15;642015;222;24898;-77
2021/03/03 03:51:15;;;;;;;24.50;15.55;;;;;;;3.91;89.89;101648.21;634762;222;32701;-76
2021/03/03 03:53:43;;;;;;;23.27;14.37;;;;;;;3.48;91.04;101649.21;640070;222;30202;-76
2021/03/03 03:56:11;;;;;;;27.20;14.87;;;;;;;3.39;91.43;101662.48;641160;222;24936;-76
2021/03/03 03:58:39;;;;;;;21.77;13.07;;;;;;;3.34;90.71;101655.38;650604;217;24851;-76
2021/03/03 04:01:07;;;;;;;22.73;12.70;;;;;;;3.17;89.86;101653.50;650033;217;25980;-76
2021/03/03 04:03:35;;;;;;;20.77;12.07;;;;;;;2.95;91.13;101660.77;635637;222;24872;-76
2021/03/03 04:06:03;;;;;;;23.77;13.73;;;;;;;3.08;90.87;101656.44;645340;222;24858;-76
2021/03/03 04:08:31;;;;;;;22.70;12.30;;;;;;;2.80;92.42;101670.37;649524;221;24818;-75
2021/03/03 04:10:58;;;;;;;20.40;12.57;;;;;;;2.90;93.79;101675.55;641415;221;26018;-77
2021/03/03 04:13:26;;;;;;;18.10;11.13;;;;;;;2.79;93.60;101681.53;643571;221;24918;-77
2021/03/03 04:15:54;;;;;;;22.97;13.47;;;;;;;2.74;95.12;101686.48;642981;219;24895;-76
2021/03/03 04:18:22;;;;;;;23.00;14.30;;;;;;;2.95;94.55;101683.06;657757;216;24833;-76
2021/03/03 04:20:50;;;;;;;21.77;13.30;;;;;;;3.08;93.74;101680.39;654692;217;24858;-77
2021/03/03 04:23:18;;;;;;;21.40;12.50;;;;;;;2.92;93.97;101675.48;657068;217;24834;-76
2021/03/03 04:25:46;;;;;;;20.93;12.30;;;;;;;2.65;93.67;101675.64;650727;220;24881;-76
2021/03/03 04:28:13;;;;;;;22.53;13.60;;;;;;;2.57;94.79;101675.11;639365;221;24890;-76
2021/03/03 04:30:41;;;;;;;19.90;13.17;;;;;;;2.61;94.70;101683.53;647056;221;24875;-76
2021/03/03 04:33:09;;;;;;;23.00;13.30;;;;;;;2.56;95.62;101686.28;654627;217;24907;-76
2021/03/03 04:35:37;;;;;;;27.20;12.93;;;;;;;2.65;95.83;101688.94;652722;217;24827;-77
2021/03/03 04:38:05;;;;;;;28.00;15.90;;;;;;;2.79;95.13;101690.53;658385;218;24851;-77
2021/03/03 04:40:33;;;;;;;21.53;12.67;;;;;;;3.03;94.75;101685.34;659256;218;24846;-77
2021/03/03 04:43:01;;;;;;;23.33;13.70;;;;;;;3.04;94.14;101677.57;652209;218;24845;-77
2021/03/03 04:45:29;;;;;;;27.67;13.30;;;;;;;3.04;94.09;101683.16;646012;221;24882;-77
2021/03/03 04:48:01;;;;;;;21.13;13.57;;;;;;;3.05;93.96;101682.27;646770;221;24872;-77
2021/03/03 04:50:28;;;;;;;25.03;12.23;;;;;;;3.00;94.35;101686.76;651128;217;24901;-75
2021/03/03 04:52:58;;;;;;;25.70;13.37;;;;;;;3.10;93.72;101685.05;638713;222;24889;-76
2021/03/03 04:55:26;;;;;;;24.40;13.97;;;;;;;3.01;93.58;101680.72;644143;222;24897;-76
2021/03/03 04:57:54;;;;;;;22.70;12.80;;;;;;;2.96;94.73;101683.48;644963;217;24939;-76
2021/03/03 05:00:22;;;;;;;23.60;13.60;;;;;;;2.83;94.84;101685.69;640315;222;24914;-76
2021/03/03 05:02:50;;;;;;;22.03;13.40;;;;;;;2.83;94.29;101678.43;658141;217;28316;-76
2021/03/03 05:05:18;;;;;;;30.23;14.50;;;;;;;2.85;94.83;101674.90;636769;222;24936;-76
2021/03/03 05:07:46;;;;;;;25.95;15.80;;;;;;;3.37;93.43;101686.94;634480;222;32673;-76
2021/03/03 05:10:15;;;;;;;24.03;14.47;;;;;;;3.02;93.59;101670.83;639442;222;23746;-77
2021/03/03 05:12:43;;;;;;;23.47;13.80;;;;;;;2.71;92.88;101668.17;646028;222;24885;-76
2021/03/03 05:15:12;;;;;;;21.40;12.97;;;;;;;2.53;93.63;101672.25;644880;221;24897;-75
2021/03/03 05:17:40;;;;;;;21.30;13.37;;;;;;;2.44;94.32;101673.06;645640;221;24856;-74
2021/03/03 05:20:09;;;;;;;24.43;12.73;;;;;;;2.61;94.75;101676.66;642324;222;24867;-77
2021/03/03 05:22:37;;;;;;;20.00;12.43;;;;;;;2.65;94.57;101676.09;641169;222;24962;-75
2021/03/03 05:25:06;;;;;;;19.70;11.83;;;;;;;2.73;94.46;101668.11;645040;222;24882;-76
2021/03/03 05:27:33;;;;;;;22.03;13.27;;;;;;;2.77;94.14;101671.77;644927;221;29070;-77
2021/03/03 05:30:01;;;;;;;23.73;13.07;;;;;;;2.81;93.59;101672.03;642841;220;24910;-76
2021/03/03 05:32:29;;;;;;;17.63;12.37;;;;;;;2.69;93.36;101662.27;654520;217;25264;-76
2021/03/03 05:34:57;;;;;;;18.30;11.07;;;;;;;2.66;93.72;101664.92;654392;217;24890;-76
2021/03/03 05:37:25;;;;;;;21.00;13.00;;;;;;;2.79;92.59;101661.44;638663;221;24926;-76
2021/03/03 05:39:53;;;;;;;23.10;14.43;;;;;;;3.21;90.50;101653.75;635000;221;32723;-76
2021/03/03 05:42:21;;;;;;;22.87;13.17;;;;;;;2.80;91.66;101650.27;650616;217;23733;-77
2021/03/03 05:44:49;;;;;;;21.60;13.30;;;;;;;2.99;90.34;101644.80;636097;221;32746;-78
2021/03/03 05:47:17;;;;;;;23.43;13.30;;;;;;;2.42;92.10;101660.28;641136;221;23760;-78
2021/03/03 05:49:45;;;;;;;20.77;12.90;;;;;;;2.38;93.65;101663.84;653584;217;24839;-77
2021/03/03 05:52:13;;;;;;;21.43;12.70;;;;;;;2.36;93.63;101664.34;644248;221;24925;-77
2021/03/03 05:54:41;;;;;;;19.80;14.10;;;;;;;2.82;91.83;101657.05;645246;219;32571;-78
2021/03/03 05:57:09;;;;;;;21.27;13.97;;;;;;;2.36;92.83;101656.64;655808;217;23753;-77
2021/03/03 05:59:37;;;;;;;17.57;12.70;;;;;;;2.24;93.83;101659.66;640685;221;24871;-77
2021/03/03 06:02:05;;;;;;;25.00;15.72;;;;;;;3.00;92.23;101672.17;642760;217;32604;-77
2021/03/03 06:04:33;;;;;;;31.07;18.00;;;;;;;2.70;93.58;101678.06;648571;218;23784;-75
2021/03/03 06:07:01;;;;;;;24.67;15.78;;;;;;;3.10;92.91;101670.92;637584;221;32716;-75
2021/03/03 06:09:29;;;;;;;21.80;14.10;;;;;;;2.62;92.80;101661.64;655747;217;23734;-75
2021/03/03 06:11:57;;;;;;;24.43;15.73;;;;;;;2.37;93.50;101656.59;654904;217;24866;-76
2021/03/03 06:14:25;;;;;;;27.60;15.57;;;;;;;2.63;93.76;101670.18;657086;217;24842;-76
2021/03/03 06:16:54;;;;;;;27.60;14.43;;;;;;;2.66;93.92;101679.88;651786;218;24912;-75
2021/03/03 06:19:22;;;;;;;29.93;14.60;;;;;;;2.72;94.26;101685.70;640571;221;24952;-76
2021/03/03 06:21:50;;;;;;;27.93;16.03;;;;;;;2.81;94.84;101684.87;641766;220;24898;-76
2021/03/03 06:24:18;;;;;;;22.87;13.70;;;;;;;2.79;94.87;101685.39;635219;221;24881;-75
2021/03/03 06:27:02;;;;;;;30.07;15.13;;;;;;;2.74;95.77;101683.45;639230;222;24883;-75
2021/03/03 06:29:30;;;;;;;27.80;14.10;;;;;;;2.84;95.13;101676.24;644315;222;28155;-76
2021/03/03 06:32:03;;;;;;;28.83;15.00;;;;;;;2.92;94.97;101673.74;649581;218;24864;-76
2021/03/03 06:34:33;;;;;;;34.53;16.40;;;;;;;2.79;95.04;101675.11;635009;222;24920;-75
2021/03/03 06:37:02;;;;;;;23.53;14.23;;;;;;;2.76;95.19;101675.69;650153;219;24902;-75
2021/03/03 06:39:31;;;;;;;23.27;13.97;;;;;;;2.83;95.08;101675.86;642394;221;24962;-76
2021/03/03 06:41:59;;;;;;;24.97;14.40;;;;;;;2.81;94.16;101674.60;654714;217;30311;-75
2021/03/03 06:44:27;;;;;;;25.00;12.97;;;;;;;2.68;94.13;101677.28;644580;221;24888;-76
2021/03/03 06:47:01;;;;;;;23.40;13.60;;;;;;;2.74;94.67;101682.17;651386;217;24877;-76
2021/03/03 06:49:29;;;;;;;20.17;13.30;;;;;;;2.84;94.70;101687.36;646156;220;30215;-75
2021/03/03 06:51:57;;;;;;;33.60;15.67;;;;;;;2.92;94.62;101686.59;651626;217;24896;-76
2021/03/03 06:54:25;;;;;;;21.20;13.37;;;;;;;3.04;94.43;101687.02;638410;221;24951;-76
2021/03/03 06:56:53;;;;;;;25.03;13.17;;;;;;;3.16;93.94;101692.52;653684;217;24868;-76
2021/03/03 06:59:22;;;;;;;24.23;14.27;;;;;;;3.35;93.70;101687.91;645626;222;24913;-76
2021/03/03 07:01:50;;;;;;;26.03;13.93;;;;;;;3.38;93.11;101682.21;641381;220;29194;-75
2021/03/03 07:04:27;;;;;;;24.73;13.83;;;;;;;3.02;92.85;101682.39;641512;221;24841;-75
2021/03/03 07:06:55;;;;;;;22.57;12.97;;;;;;;3.04;93.53;101680.59;647766;220;24900;-76
2021/03/03 07:09:24;;;;;;;17.73;11.20;;;;;;;3.18;93.79;101686.86;640586;221;24888;-76
2021/03/03 07:11:51;;;;;;;27.45;16.27;;;;;;;3.82;91.99;101688.06;647531;217;43590;-76
2021/03/03 07:14:19;;;;;;;23.27;15.23;;;;;;;3.64;92.33;101689.27;641888;221;23809;-77
2021/03/03 07:16:57;;;;;;;23.80;15.00;;;;;;;3.70;92.26;101691.16;654243;217;25021;-76
2021/03/03 07:19:25;;;;;;;31.80;18.87;;;;;;;4.35;90.17;101677.59;631349;220;32798;-75
2021/03/03 07:21:53;;;;;;;33.20;19.87;;;;;;;4.53;88.65;101665.18;633530;223;32872;-75
2021/03/03 07:24:21;;;;;;;34.63;21.20;;;;;;;4.02;90.23;101671.75;644137;222;23800;-75
2021/03/03 07:26:49;;;;;;;31.77;19.07;;;;;;;4.03;91.00;101680.31;646996;218;28099;-75
2021/03/03 07:29:17;;;;;;;31.30;17.30;;;;;;;3.90;91.47;101686.44;638456;222;25172;-75
2021/03/03 07:31:45;;;;;;;26.55;17.70;;;;;;;4.26;89.73;101676.28;652260;217;32602;-75
2021/03/03 07:34:13;;;;;;;31.97;17.17;;;;;;;4.47;88.95;101671.88;641992;218;32540;-75
2021/03/03 07:36:41;;;;;;;27.37;15.97;;;;;;;4.18;90.96;101677.06;650203;218;23907;-76
2021/03/03 07:39:09;;;;;;;22.23;14.73;;;;;;;4.12;91.23;101686.35;648888;218;24845;-75
2021/03/03 07:41:42;;;;;;;31.70;18.63;;;;;;;4.20;91.71;101704.02;650146;218;24855;-75
2021/03/03 07:44:10;;;;;;;29.77;19.10;;;;;;;4.88;89.44;101685.88;639666;221;32832;-75
2021/03/03 07:46:39;;;;;;;25.27;16.53;;;;;;;4.52;90.58;101691.84;652342;218;23774;-75
2021/03/03 07:49:08;;;;;;;28.50;16.27;;;;;;;4.51;90.69;101688.06;647941;219;24864;-78
2021/03/03 07:51:37;;;;;;;28.10;17.67;;;;;;;4.79;90.66;101688.91;650303;217;24926;-75
2021/03/03 07:54:05;;;;;;;28.77;15.67;;;;;;;4.91;90.60;101677.55;641615;221;24920;-74
2021/03/03 07:56:33;;;;;;;23.93;15.83;;;;;;;4.91;90.13;101680.58;639485;221;25923;-75
2021/03/03 07:59:01;;;;;;;26.57;16.27;;;;;;;5.16;88.60;101675.09;655162;217;24859;-75
2021/03/03 08:01:29;;;;;;;29.30;15.67;;;;;;;5.40;89.00;101675.19;642869;221;24949;-75
2021/03/03 08:03:57;;;;;;;25.67;15.03;;;;;;;5.46;89.21;101677.45;657961;217;24853;-75
2021/03/03 08:06:34;;;;;;;27.00;15.60;;;;;;;5.69;88.44;101672.91;641441;221;26017;-75
2021/03/03 08:09:10;;;;;;;24.70;15.80;;;;;;;5.71;88.03;101665.91;644598;221;25263;-75
2021/03/03 08:11:38;;;;;;;25.83;15.20;;;;;;;5.88;88.16;101673.62;642372;220;25979;-75
2021/03/03 08:14:28;;;;;;;22.53;14.60;;;;;;;5.78;88.53;101678.89;641828;221;24884;-75
2021/03/03 08:16:56;;;;;;;28.17;15.20;;;;;;;6.11;87.46;101673.77;638223;221;24957;-75
2021/03/03 08:19:24;;;;;;;22.07;14.10;;;;;;;6.28;86.59;101673.70;642754;221;24895;-76
2021/03/03 08:21:51;;;;;;;28.07;16.60;;;;;;;6.37;86.43;101666.77;637905;220;27078;-75
2021/03/03 08:24:38;;;;;;;26.20;16.57;;;;;;;6.48;86.50;101668.78;646051;221;24851;-75
2021/03/03 08:27:16;;;;;;;26.90;15.40;;;;;;;6.64;85.29;101662.31;641942;221;24802;-75
2021/03/03 08:29:44;;;;;;;34.27;16.10;;;;;;;6.71;85.92;101663.17;644831;222;24924;-76
2021/03/03 08:32:21;;;;;;;25.33;14.20;;;;;;;6.79;85.58;101660.17;631662;222;25188;-75
2021/03/03 08:34:52;;;;;;;24.17;15.00;;;;;;;6.87;85.50;101660.56;640396;222;25284;-76
2021/03/03 08:37:29;;;;;;;28.67;14.70;;;;;;;6.98;85.81;101659.51;645329;222;24891;-76
2021/03/03 08:39:57;;;;;;;30.60;16.20;;;;;;;7.10;85.12;101662.70;642379;220;24916;-75
2021/03/03 08:42:31;;;;;;;31.43;16.87;;;;;;;7.13;84.67;101659.94;634506;222;25253;-75
2021/03/03 08:45:01;;;;;;;24.90;16.37;;;;;;;7.14;85.35;101659.02;658592;217;24883;-76
2021/03/03 08:47:49;;;;;;;24.77;15.73;;;;;;;7.28;85.14;101652.22;654271;218;24831;-75
2021/03/03 08:50:30;;;;;;;32.53;18.93;;;;;;;7.20;84.94;101657.02;647002;218;24875;-76
2021/03/03 08:53:09;;;;;;;27.10;15.90;;;;;;;7.39;85.23;101645.97;649364;221;24795;-77
2021/03/03 08:55:37;;;;;;;40.37;21.60;;;;;;;7.49;84.02;101643.22;641599;221;24883;-76
2021/03/03 08:58:08;;;;;;;31.73;18.40;;;;;;;7.45;84.59;101646.89;636796;222;24870;-75
2021/03/03 09:00:48;;;;;;;53.20;32.17;;;;;;;7.57;84.21;101642.75;644754;222;24927;-75
2021/03/03 09:03:20;;;;;;;40.20;22.83;;;;;;;7.50;84.68;101647.47;643622;221;25016;-75
2021/03/03 09:05:48;;;;;;;33.20;19.37;;;;;;;7.73;85.39;101646.09;660352;217;24820;-76
2021/03/03 09:08:20;;;;;;;75.37;46.67;;;;;;;7.84;84.08;101636.39;645429;220;24877;-76
2021/03/03 09:10:48;;;;;;;33.50;19.03;;;;;;;7.69;84.30;101635.09;647150;217;24871;-76
2021/03/03 09:13:22;;;;;;;30.50;18.37;;;;;;;7.80;84.63;101641.40;640642;221;24871;-76
2021/03/03 09:16:00;;;;;;;36.70;19.70;;;;;;;7.95;83.41;101639.17;646854;218;24864;-75
2021/03/03 09:18:28;;;;;;;33.73;20.92;;;;;;;8.48;82.34;101629.42;645383;218;32571;-76
2021/03/03 09:21:05;;;;;;;40.33;22.00;;;;;;;8.20;83.50;101627.69;650184;220;23759;-76
2021/03/03 09:23:33;;;;;;;42.93;23.50;;;;;;;8.25;83.03;101628.22;644540;221;25107;-75
2021/03/03 09:26:02;;;;;;;34.23;22.50;;;;;;;8.75;80.99;101621.66;649461;217;33252;-75
2021/03/03 09:28:41;;;;;;;35.40;22.90;;;;;;;8.82;80.65;101620.78;635320;221;32721;-75
2021/03/03 09:31:09;;;;;;;34.53;20.80;;;;;;;8.27;81.41;101617.76;637705;221;23778;-76
2021/03/03 09:33:36;;;;;;;36.77;20.80;;;;;;;8.28;82.00;101629.33;642143;220;24870;-77
2021/03/03 09:36:05;;;;;;;33.00;20.73;;;;;;;8.38;80.99;101627.03;646797;221;25091;-77
2021/03/03 09:38:33;;;;;;;36.37;20.73;;;;;;;8.58;82.04;101625.30;649222;221;24788;-75
2021/03/03 09:41:10;;;;;;;36.07;21.23;;;;;;;8.55;81.53;101635.05;656446;213;24850;-75
2021/03/03 09:43:38;;;;;;;44.40;22.73;;;;;;;8.54;81.44;101625.14;658000;217;24838;-76
2021/03/03 09:46:06;;;;;;;33.93;21.70;;;;;;;8.76;80.85;101623.31;652030;217;24841;-75
2021/03/03 09:48:34;;;;;;;35.13;20.23;;;;;;;8.76;80.66;101619.89;651312;217;24843;-75
2021/03/03 09:51:02;;;;;;;31.57;20.40;;;;;;;8.91;80.25;101616.30;652086;217;24835;-75
2021/03/03 09:53:29;;;;;;;34.33;20.63;;;;;;;8.76;79.77;101614.23;657042;217;24820;-75
2021/03/03 09:55:57;;;;;;;44.43;20.60;;;;;;;8.89;80.35;101619.00;656371;217;24835;-75
2021/03/03 09:58:25;;;;;;;36.57;21.40;;;;;;;9.14;79.41;101612.19;644862;218;24870;-76
2021/03/03 10:00:53;;;;;;;33.30;21.00;;;;;;;9.11;80.02;101615.82;644828;222;24873;-76
2021/03/03 10:03:21;;;;;;;41.67;22.83;;;;;;;9.25;79.29;101621.40;641005;221;24873;-76
2021/03/03 10:05:55;;;;;;;37.90;21.07;;;;;;;9.30;79.71;101618.52;645124;222;24826;-75
2021/03/03 10:08:22;;;;;;;34.43;21.60;;;;;;;9.41;78.18;101616.84;652256;219;24821;-77
2021/03/03 10:10:50;;;;;;;36.03;22.10;;;;;;;9.21;79.19;101608.27;656754;219;24860;-75
2021/03/03 10:13:20;;;;;;;33.93;20.63;;;;;;;9.40;78.60;101614.35;652540;217;24833;-75
2021/03/03 10:15:48;;;;;;;38.97;21.00;;;;;;;9.53;79.11;101606.93;657040;216;24838;-76
2021/03/03 10:18:16;;;;;;;38.83;21.60;;;;;;;9.33;78.03;101611.81;649216;221;24893;-76
2021/03/03 10:20:46;;;;;;;34.47;21.00;;;;;;;9.52;78.37;101601.38;642572;220;24908;-76
2021/03/03 10:23:12;;;;;;;35.57;20.30;;;;;;;9.66;79.19;101611.30;639162;221;28189;-76
2021/03/03 10:25:40;;;;;;;30.40;19.03;;;;;;;9.97;78.20;101610.01;658566;217;24869;-76
2021/03/03 10:28:08;;;;;;;34.30;20.03;;;;;;;9.93;76.98;101604.20;652007;217;24958;-76
2021/03/03 10:30:37;;;;;;;33.00;20.87;;;;;;;10.17;77.38;101603.44;640451;221;25392;-76
2021/03/03 10:33:05;;;;;;;33.70;21.03;;;;;;;10.36;76.18;101598.14;637542;221;32742;-76
2021/03/03 10:35:33;;;;;;;35.60;20.73;;;;;;;10.31;76.04;101591.62;654775;216;24826;-75
2021/03/03 10:38:10;;;;;;;31.37;21.15;;;;;;;10.49;74.59;101588.16;651259;217;32659;-75
2021/03/03 10:40:39;;;;;;;35.83;21.53;;;;;;;10.70;75.41;101593.95;651735;219;23734;-76
2021/03/03 10:43:09;;;;;;;29.87;19.60;;;;;;;10.76;75.18;101587.46;648570;219;24827;-76
2021/03/03 10:45:37;;;;;;;39.73;20.13;;;;;;;11.04;75.52;101584.95;641561;221;24899;-76
2021/03/03 10:48:06;;;;;;;33.60;21.40;;;;;;;11.28;73.72;101582.30;642508;217;43331;-75
2021/03/03 10:50:35;;;;;;;29.07;20.00;;;;;;;10.83;74.57;101583.92;641411;221;23753;-75
2021/03/03 10:53:02;;;;;;;35.30;21.30;;;;;;;10.72;75.31;101580.00;636521;222;24861;-76
2021/03/03 10:55:34;;;;;;;32.97;19.13;;;;;;;11.04;75.18;101574.54;643238;222;24903;-75
2021/03/03 10:58:06;;;;;;;31.90;18.60;;;;;;;10.87;74.82;101580.17;652595;217;24896;-75
2021/03/03 11:00:34;;;;;;;36.17;18.43;;;;;;;10.81;74.06;101578.84;649049;218;28042;-75
2021/03/03 11:03:02;;;;;;;33.07;18.10;;;;;;;10.40;75.08;101575.34;642177;222;24875;-76
2021/03/03 11:05:30;;;;;;;32.33;18.80;;;;;;;11.17;73.33;101571.84;643820;222;23894;-75
2021/03/03 11:07:58;;;;;;;34.70;18.80;;;;;;;10.88;73.24;101561.01;652972;217;24822;-75
2021/03/03 11:10:26;;;;;;;29.07;18.47;;;;;;;11.06;72.83;101558.80;659396;217;24835;-76
2021/03/03 11:12:54;;;;;;;32.43;18.23;;;;;;;11.42;72.04;101560.41;643256;222;24865;-75
2021/03/03 11:15:22;;;;;;;31.57;18.27;;;;;;;11.05;71.95;101554.06;643860;222;24901;-75
2021/03/03 11:17:50;;;;;;;31.27;19.27;;;;;;;11.37;71.55;101552.09;644131;220;24884;-75
2021/03/03 11:20:18;;;;;;;35.63;19.00;;;;;;;11.49;71.55;101547.25;640776;222;24927;-75
2021/03/03 11:22:46;;;;;;;29.03;18.23;;;;;;;11.87;71.26;101541.23;651208;218;24851;-75
2021/03/03 11:25:15;;;;;;;33.30;17.77;;;;;;;12.24;70.62;101530.47;638111;221;24860;-76